sensor_id;sensor_type;location;lat;lon;timestamp;P1;durP1;ratioP1;P2;durP2;ratioP2
75516;SDS011;64097;52.548;13.406;2022-10-30T06:01:16;13.70;;;9.23;;
75516;SDS011;64097;52.548;13.406;2022-10-30T06:03:42;10.93;;;9.32;;
75516;SDS011;64097;52.548;13.406;2022-10-30T06:06:08;13.77;;;10.55;;
75516;SDS011;64097;52.548;13.406;2022-10-30T06:08:34;13.27;;;9.27;;
75516;SDS011;64097;52.548;13.406;2022-10-30T06:11:00;11.35;;;8.65;;
75516;SDS011;64097;52.548;13.406;2022-10-30T06:13:25;11.25;;;8.68;;
75516;SDS011;64097;52.548;13.406;2022-10-30T06:15:53;12.63;;;8.98;;
75516;SDS011;64097;52.548;13.406;2022-10-30T06:18:20;11.43;;;8.57;;
75516;SDS011;64097;52.548;13.406;2022-10-30T06:20:46;15.77;;;10.93;;
75516;SDS011;64097;52.548;13.406;2022-10-30T06:23:12;12.90;;;10.73;;
75516;SDS011;64097;52.548;13.406;2022-10-30T06:25:37;13.18;;;10.00;;
75516;SDS011;64097;52.548;13.406;2022-10-30T06:28:03;15.20;;;11.50;;
75516;SDS011;64097;52.548;13.406;2022-10-30T06:30:29;14.55;;;11.10;;
75516;SDS011;64097;52.548;13.406;2022-10-30T06:32:57;14.02;;;11.00;;
75516;SDS011;64097;52.548;13.406;2022-10-30T06:35:27;11.63;;;9.20;;
75516;SDS011;64097;52.548;13.406;2022-10-30T06:37:53;11.98;;;8.77;;
75516;SDS011;64097;52.548;13.406;2022-10-30T06:40:20;11.95;;;8.75;;
75516;SDS011;64097;52.548;13.406;2022-10-30T06:42:51;13.25;;;8.52;;
75516;SDS011;64097;52.548;13.406;2022-10-30T06:45:18;14.63;;;11.23;;
75516;SDS011;64097;52.548;13.406;2022-10-30T06:47:45;11.85;;;9.55;;
75516;SDS011;64097;52.548;13.406;2022-10-30T06:50:11;13.07;;;10.75;;
75516;SDS011;64097;52.548;13.406;2022-10-30T06:52:41;10.82;;;8.93;;
75516;SDS011;64097;52.548;13.406;2022-10-30T06:55:07;12.00;;;8.88;;
75516;SDS011;64097;52.548;13.406;2022-10-30T06:57:33;12.85;;;9.13;;
75516;SDS011;64097;52.548;13.406;2022-10-30T06:59:59;12.77;;;9.73;;
75516;SDS011;64097;52.548;13.406;2022-10-30T07:02:25;10.98;;;9.27;;
75516;SDS011;64097;52.548;13.406;2022-10-30T07:04:51;14.20;;;9.40;;
75516;SDS011;64097;52.548;13.406;2022-10-30T07:07:17;13.80;;;9.35;;
75516;SDS011;64097;52.548;13.406;2022-10-30T07:09:42;12.13;;;8.68;;
75516;SDS011;64097;52.548;13.406;2022-10-30T07:12:10;10.95;;;9.10;;
75516;SDS011;64097;52.548;13.406;2022-10-30T07:14:36;13.02;;;8.73;;
75516;SDS011;64097;52.548;13.406;2022-10-30T07:17:02;11.00;;;9.02;;
75516;SDS011;64097;52.548;13.406;2022-10-30T07:19:27;11.88;;;8.95;;
75516;SDS011;64097;52.548;13.406;2022-10-30T07:21:53;11.57;;;8.13;;
75516;SDS011;64097;52.548;13.406;2022-10-30T07:24:19;9.85;;;8.52;;
75516;SDS011;64097;52.548;13.406;2022-10-30T07:26:44;11.27;;;9.10;;
75516;SDS011;64097;52.548;13.406;2022-10-30T07:29:10;14.32;;;9.75;;
75516;SDS011;64097;52.548;13.406;2022-10-30T07:31:36;11.02;;;8.80;;
75516;SDS011;64097;52.548;13.406;2022-10-30T07:34:01;13.57;;;9.57;;
75516;SDS011;64097;52.548;13.406;2022-10-30T07:36:27;13.05;;;9.77;;
75516;SDS011;64097;52.548;13.406;2022-10-30T07:38:53;12.57;;;8.90;;
75516;SDS011;64097;52.548;13.406;2022-10-30T07:41:18;11.85;;;9.10;;
75516;SDS011;64097;52.548;13.406;2022-10-30T07:43:45;12.93;;;9.38;;
75516;SDS011;64097;52.548;13.406;2022-10-30T07:46:11;11.68;;;8.27;;
75516;SDS011;64097;52.548;13.406;2022-10-30T07:48:37;11.05;;;8.82;;
75516;SDS011;64097;52.548;13.406;2022-10-30T07:51:03;12.40;;;9.02;;
75516;SDS011;64097;52.548;13.406;2022-10-30T07:53:29;12.38;;;8.77;;
75516;SDS011;64097;52.548;13.406;2022-10-30T07:55:55;11.50;;;8.85;;
75516;SDS011;64097;52.548;13.406;2022-10-30T07:58:21;12.55;;;8.88;;
75516;SDS011;64097;52.548;13.406;2022-10-30T08:00:46;10.43;;;8.63;;
75516;SDS011;64097;52.548;13.406;2022-10-30T08:03:12;12.23;;;7.88;;
75516;SDS011;64097;52.548;13.406;2022-10-30T08:05:38;13.95;;;9.43;;
75516;SDS011;64097;52.548;13.406;2022-10-30T08:08:04;11.05;;;8.40;;
75516;SDS011;64097;52.548;13.406;2022-10-30T08:10:31;11.18;;;8.77;;
75516;SDS011;64097;52.548;13.406;2022-10-30T08:12:57;11.70;;;9.30;;
75516;SDS011;64097;52.548;13.406;2022-10-30T08:15:23;13.07;;;8.48;;
75516;SDS011;64097;52.548;13.406;2022-10-30T08:17:49;13.52;;;9.25;;
75516;SDS011;64097;52.548;13.406;2022-10-30T08:20:16;13.43;;;8.88;;
75516;SDS011;64097;52.548;13.406;2022-10-30T08:25:10;12.63;;;8.65;;
75516;SDS011;64097;52.548;13.406;2022-10-30T08:27:35;11.77;;;8.38;;
75516;SDS011;64097;52.548;13.406;2022-10-30T08:30:02;10.02;;;8.05;;
75516;SDS011;64097;52.548;13.406;2022-10-30T08:32:28;11.10;;;8.40;;
75516;SDS011;64097;52.548;13.406;2022-10-30T08:34:53;12.00;;;8.95;;
75516;SDS011;64097;52.548;13.406;2022-10-30T08:37:19;11.85;;;9.20;;
75516;SDS011;64097;52.548;13.406;2022-10-30T08:39:44;11.85;;;9.10;;
75516;SDS011;64097;52.548;13.406;2022-10-30T08:42:10;10.07;;;8.63;;
75516;SDS011;64097;52.548;13.406;2022-10-30T08:44:36;10.60;;;7.90;;
75516;SDS011;64097;52.548;13.406;2022-10-30T08:47:01;10.82;;;8.60;;
75516;SDS011;64097;52.548;13.406;2022-10-30T08:49:27;11.25;;;8.95;;
75516;SDS011;64097;52.548;13.406;2022-10-30T08:51:53;11.82;;;9.45;;
75516;SDS011;64097;52.548;13.406;2022-10-30T08:54:18;10.35;;;8.55;;
75516;SDS011;64097;52.548;13.406;2022-10-30T08:56:44;13.60;;;9.13;;
75516;SDS011;64097;52.548;13.406;2022-10-30T08:59:10;9.60;;;8.52;;
75516;SDS011;64097;52.548;13.406;2022-10-30T09:01:35;11.00;;;7.90;;
75516;SDS011;64097;52.548;13.406;2022-10-30T09:04:02;10.38;;;8.15;;
75516;SDS011;64097;52.548;13.406;2022-10-30T09:06:29;13.05;;;7.57;;
75516;SDS011;64097;52.548;13.406;2022-10-30T09:08:55;8.52;;;6.72;;
75516;SDS011;64097;52.548;13.406;2022-10-30T09:11:21;8.90;;;6.57;;
75516;SDS011;64097;52.548;13.406;2022-10-30T09:13:46;11.57;;;7.38;;
75516;SDS011;64097;52.548;13.406;2022-10-30T09:16:12;9.00;;;6.63;;
75516;SDS011;64097;52.548;13.406;2022-10-30T09:18:38;9.95;;;7.10;;
75516;SDS011;64097;52.548;13.406;2022-10-30T09:21:03;10.35;;;7.00;;
75516;SDS011;64097;52.548;13.406;2022-10-30T09:23:29;14.80;;;9.10;;
75516;SDS011;64097;52.548;13.406;2022-10-30T09:25:58;10.38;;;6.75;;
75516;SDS011;64097;52.548;13.406;2022-10-30T09:28:23;8.70;;;6.45;;
75516;SDS011;64097;52.548;13.406;2022-10-30T09:30:49;7.43;;;5.95;;
75516;SDS011;64097;52.548;13.406;2022-10-30T09:33:17;7.97;;;5.95;;
75516;SDS011;64097;52.548;13.406;2022-10-30T09:35:42;8.25;;;5.75;;
75516;SDS011;64097;52.548;13.406;2022-10-30T09:38:08;8.93;;;6.55;;
75516;SDS011;64097;52.548;13.406;2022-10-30T09:49:39;9.13;;;5.78;;
75516;SDS011;64097;52.548;13.406;2022-10-30T09:57:51;8.02;;;5.70;;
75516;SDS011;64097;52.548;13.406;2022-10-30T10:00:37;10.77;;;6.07;;
75516;SDS011;64097;52.548;13.406;2022-10-30T10:03:22;9.20;;;6.05;;
75516;SDS011;64097;52.548;13.406;2022-10-30T10:05:51;8.07;;;5.85;;
75516;SDS011;64097;52.548;13.406;2022-10-30T10:08:21;8.32;;;5.57;;
75516;SDS011;64097;52.548;13.406;2022-10-30T10:10:56;7.32;;;5.47;;
75516;SDS011;64097;52.548;13.406;2022-10-30T10:13:40;6.80;;;4.95;;
75516;SDS011;64097;52.548;13.406;2022-10-30T10:16:35;8.10;;;4.75;;
75516;SDS011;64097;52.548;13.406;2022-10-30T10:19:47;6.55;;;4.93;;
75516;SDS011;64097;52.548;13.406;2022-10-30T10:22:18;7.32;;;5.45;;
75516;SDS011;64097;52.548;13.406;2022-10-30T10:24:58;8.15;;;4.68;;
75516;SDS011;64097;52.548;13.406;2022-10-30T10:30:23;7.85;;;4.72;;
75516;SDS011;64097;52.548;13.406;2022-10-30T10:49:37;6.80;;;4.93;;
75516;SDS011;64097;52.548;13.406;2022-10-30T10:52:43;6.93;;;4.65;;
75516;SDS011;64097;52.548;13.406;2022-10-30T10:55:18;7.20;;;4.50;;
75516;SDS011;64097;52.548;13.406;2022-10-30T10:57:51;10.63;;;5.10;;
75516;SDS011;64097;52.548;13.406;2022-10-30T11:00:20;7.43;;;4.68;;
75516;SDS011;64097;52.548;13.406;2022-10-30T11:05:33;7.75;;;4.35;;
75516;SDS011;64097;52.548;13.406;2022-10-30T11:08:21;7.53;;;4.90;;
75516;SDS011;64097;52.548;13.406;2022-10-30T11:10:49;7.38;;;4.95;;
75516;SDS011;64097;52.548;13.406;2022-10-30T11:13:28;6.10;;;4.15;;
75516;SDS011;64097;52.548;13.406;2022-10-30T11:18:33;8.68;;;5.00;;
75516;SDS011;64097;52.548;13.406;2022-10-30T11:23:39;7.53;;;4.50;;
75516;SDS011;64097;52.548;13.406;2022-10-30T11:28:44;6.80;;;4.15;;
75516;SDS011;64097;52.548;13.406;2022-10-30T11:31:35;6.88;;;4.45;;
75516;SDS011;64097;52.548;13.406;2022-10-30T11:36:44;8.10;;;4.93;;
75516;SDS011;64097;52.548;13.406;2022-10-30T11:39:25;7.25;;;4.55;;
75516;SDS011;64097;52.548;13.406;2022-10-30T11:44:42;9.52;;;5.20;;
75516;SDS011;64097;52.548;13.406;2022-10-30T11:47:13;8.80;;;5.50;;
75516;SDS011;64097;52.548;13.406;2022-10-30T11:49:50;9.10;;;4.72;;
75516;SDS011;64097;52.548;13.406;2022-10-30T11:52:21;8.70;;;5.50;;
75516;SDS011;64097;52.548;13.406;2022-10-30T12:02:25;11.20;;;6.47;;
75516;SDS011;64097;52.548;13.406;2022-10-30T12:05:00;9.50;;;5.03;;
75516;SDS011;64097;52.548;13.406;2022-10-30T12:07:31;7.78;;;4.68;;
75516;SDS011;64097;52.548;13.406;2022-10-30T12:09:57;6.68;;;4.50;;
75516;SDS011;64097;52.548;13.406;2022-10-30T12:12:34;8.73;;;4.85;;
75516;SDS011;64097;52.548;13.406;2022-10-30T12:15:06;8.98;;;4.53;;
75516;SDS011;64097;52.548;13.406;2022-10-30T12:17:39;9.85;;;4.88;;
75516;SDS011;64097;52.548;13.406;2022-10-30T12:20:12;6.80;;;3.92;;
75516;SDS011;64097;52.548;13.406;2022-10-30T12:22:39;8.18;;;4.53;;
75516;SDS011;64097;52.548;13.406;2022-10-30T12:25:06;7.93;;;3.85;;
75516;SDS011;64097;52.548;13.406;2022-10-30T12:27:44;7.00;;;4.00;;
75516;SDS011;64097;52.548;13.406;2022-10-30T12:30:15;7.28;;;4.15;;
75516;SDS011;64097;52.548;13.406;2022-10-30T12:32:46;9.25;;;4.25;;
75516;SDS011;64097;52.548;13.406;2022-10-30T12:38:04;5.65;;;3.95;;
75516;SDS011;64097;52.548;13.406;2022-10-30T12:40:35;11.77;;;5.25;;
75516;SDS011;64097;52.548;13.406;2022-10-30T12:45:44;7.47;;;4.45;;
75516;SDS011;64097;52.548;13.406;2022-10-30T12:53:46;6.32;;;3.97;;
75516;SDS011;64097;52.548;13.406;2022-10-30T12:56:33;8.05;;;4.28;;
75516;SDS011;64097;52.548;13.406;2022-10-30T13:01:56;11.98;;;5.07;;
75516;SDS011;64097;52.548;13.406;2022-10-30T13:04:31;6.47;;;3.60;;
75516;SDS011;64097;52.548;13.406;2022-10-30T13:07:44;7.25;;;3.80;;
75516;SDS011;64097;52.548;13.406;2022-10-30T13:12:45;8.65;;;4.50;;
75516;SDS011;64097;52.548;13.406;2022-10-30T13:15:37;10.13;;;4.50;;
75516;SDS011;64097;52.548;13.406;2022-10-30T13:18:18;7.88;;;4.10;;
75516;SDS011;64097;52.548;13.406;2022-10-30T13:21:12;9.25;;;4.10;;
75516;SDS011;64097;52.548;13.406;2022-10-30T13:23:41;6.32;;;3.88;;
75516;SDS011;64097;52.548;13.406;2022-10-30T13:32:54;6.38;;;3.63;;
75516;SDS011;64097;52.548;13.406;2022-10-30T13:40:13;6.22;;;3.40;;
75516;SDS011;64097;52.548;13.406;2022-10-30T13:42:57;7.05;;;3.78;;
75516;SDS011;64097;52.548;13.406;2022-10-30T13:53:26;8.32;;;3.72;;
75516;SDS011;64097;52.548;13.406;2022-10-30T13:55:54;7.95;;;4.30;;
